Currently 76°F in Hemet, California, USA
76°F
76°F / 54°F
2 mph W
0.00"
Friday, November 15, 2019 1:25 PM PST

Hemet, California Weather Summary
Last 36 Hours

Temperature Winds Hourly Humidity Dewpoint
Time Report Norm Report Norm Max Gusts Precip. Rpt. Norm Rpt. Norm Pressure
1Fri 01:25 PM  75.7°F  72°F  2 mph W  2 mph  6 mph  0.00"  24%  29%  35°F  37°F  30.04"
2Fri 01:00 PM  75.7°F  72°F  2 mph W  1 mph  8 mph  0.00"  24%  29%  35°F  37°F  30.04"
Fri 12:00 PM  73.9°F  70°F  3 mph W  1 mph  7 mph  0.00"  27%  31%  37°F  37°F  30.07"
Fri 11:00 AM  71.6°F  68°F  3 mph W  1 mph  6 mph  0.00"  28%  34%  36°F  38°F  30.10"
Fri 10:00 AM  68.4°F  65°F  4 mph W  1 mph  6 mph  0.00"  29%  38%  34°F  38°F  30.11"
Fri 09:00 AM  63.1°F  63°F  calm  calm  none  0.00"  42%  41%  39°F  38°F  30.11"
Fri 08:00 AM  59.5°F  59°F  calm  calm  none  0.00"  47%  43%  38°F  35°F  30.11"
Fri 07:00 AM  55.9°F  54°F  calm  calm  none  0.00"  43%  45%  33°F  32°F  30.11"
Fri 06:00 AM  54.5°F  54°F  calm  1 mph  none  0.00"  47%  45%  34°F  32°F  30.11"
3Fri 05:22 AM  54.1°F  54°F  calm  1 mph  none  ----  47%  44%  34°F  32°F  30.11"
Fri 05:00 AM  55.8°F  54°F  calm  1 mph  none  0.00"  46%  44%  34°F  32°F  30.11"
Fri 04:00 AM  56.5°F  54°F  calm  1 mph  none  0.00"  41%  44%  32°F  32°F  30.09"
Fri 03:00 AM  56.5°F  54°F  calm  1 mph  none  0.00"  39%  44%  31°F  32°F  30.10"
Fri 02:00 AM  58.8°F  55°F  calm  1 mph  none  0.00"  28%  45%  24°F  33°F  30.11"
Fri 01:00 AM  59.5°F  55°F  calm  1 mph  none  0.00"  31%  45%  28°F  33°F  30.12"
Fri 12:00 AM  59.7°F  55°F  calm  1 mph  none  0.00"  29%  45%  26°F  33°F  30.13"
Thu 11:00 PM  58.8°F  56°F  calm  1 mph  none  0.00"  31%  45%  27°F  34°F  30.14"
Thu 10:00 PM  59.5°F  57°F  calm  1 mph  none  0.00"  33%  45%  29°F  34°F  30.14"
Thu 09:00 PM  59.9°F  57°F  calm  1 mph  none  0.00"  37%  44%  32°F  35°F  30.14"
Thu 08:00 PM  61.2°F  58°F  calm  1 mph  none  0.00"  35%  43%  32°F  35°F  30.14"
Thu 07:00 PM  63.3°F  60°F  calm  1 mph  none  0.00"  37%  42%  36°F  36°F  30.12"
Thu 06:00 PM  66.0°F  62°F  calm  1 mph  none  0.00"  33%  40%  35°F  36°F  30.11"
Thu 05:00 PM  69.4°F  65°F  calm  1 mph  3 mph  0.00"  28%  36%  34°F  37°F  30.09"
Thu 04:00 PM  78.8°F  71°F  2 mph SW  1 mph  8 mph  0.00"  19%  31%  31°F  37°F  30.07"
Thu 03:00 PM  80.8°F  72°F  2 mph W  1 mph  7 mph  0.00"  15%  29%  27°F  37°F  30.06"
Thu 02:00 PM  81.1°F  72°F  3 mph NW  2 mph  7 mph  0.00"  14%  29%  26°F  37°F  30.05"
Thu 01:00 PM  79.9°F  72°F  3 mph W  1 mph  9 mph  0.00"  15%  30%  26°F  37°F  30.07"
Thu 12:00 PM  77.4°F  70°F  2 mph SW  1 mph  7 mph  0.00"  17%  32%  27°F  38°F  30.09"
Thu 11:00 AM  74.8°F  68°F  calm  1 mph  5 mph  0.00"  20%  35%  29°F  38°F  30.10"
Thu 10:00 AM  70.9°F  65°F  2 mph SW  1 mph  5 mph  0.00"  22%  39%  29°F  39°F  30.12"
Thu 09:00 AM  69.6°F  63°F  calm  calm  none  0.00"  24%  42%  30°F  39°F  30.12"
Thu 08:00 AM  59.5°F  59°F  calm  calm  none  0.00"  27%  44%  24°F  36°F  30.12"
Thu 07:00 AM  59.0°F  54°F  calm  calm  none  0.00"  22%  46%  19°F  33°F  30.09"
Thu 06:00 AM  58.1°F  53°F  calm  calm  none  0.00"  24%  46%  20°F  32°F  30.07"
Thu 05:00 AM  57.6°F  54°F  calm  1 mph  none  0.00"  25%  46%  20°F  32°F  30.05"
Thu 04:00 AM  57.2°F  54°F  calm  1 mph  none  0.00"  25%  45%  20°F  33°F  30.05"
Thu 03:00 AM  57.9°F  54°F  calm  1 mph  none  0.00"  24%  45%  20°F  33°F  30.05"
Thu 02:00 AM  58.8°F  55°F  calm  calm  none  0.00"  27%  46%  23°F  33°F  30.05"

  1. Current weather data. No green row appears if the current weather data is also the high or low for the current day.
  2. High temperature for the current day.
  3. Low temperature for the current day.

The Hemet weather pages are a service of WeatherCurrents. Hemet, California is located in the San Jacinto Valley, in western Riverside County, at the foot of the San Jacinto mountains.
Copyright ©2019  WeatherCurrents. All rights reserved. - Submit questions and comments - Privacy Policy

This page automatically refreshes every 10 minutes.